createdAt,value
2019-04-04T00:00:31.189Z,5.57
2019-04-04T00:03:06.257Z,5.57
2019-04-04T00:05:39.029Z,5.53
2019-04-04T00:08:11.572Z,5.53
2019-04-04T00:10:43.263Z,5.55
2019-04-04T00:13:19.744Z,5.51
2019-04-04T00:15:54.301Z,5.51
2019-04-04T00:18:27.921Z,5.45
2019-04-04T00:21:02.794Z,5.45
2019-04-04T00:23:37.784Z,5.40
2019-04-04T00:26:10.679Z,5.40
2019-04-04T00:28:46.105Z,5.36
2019-04-04T00:31:19.590Z,5.26
2019-04-04T00:33:55.862Z,5.20
2019-04-04T00:36:28.833Z,5.21
2019-04-04T00:39:01.319Z,5.15
2019-04-04T00:41:35.394Z,5.13
2019-04-04T00:44:07.752Z,5.16
2019-04-04T00:46:41.347Z,5.08
2019-04-04T00:49:13.636Z,4.91
2019-04-04T00:51:46.297Z,4.91
2019-04-04T00:54:19.039Z,4.83
2019-04-04T00:56:52.338Z,4.83
2019-04-04T00:59:26.294Z,4.91
2019-04-04T01:02:00.411Z,4.87
2019-04-04T01:04:34.406Z,4.87
2019-04-04T01:07:06.754Z,4.82
2019-04-04T01:09:39.292Z,4.78
2019-04-04T01:12:11.890Z,4.74
2019-04-04T01:14:44.678Z,4.74
2019-04-04T01:17:17.316Z,4.65
2019-04-04T01:19:50.297Z,4.59
2019-04-04T01:22:23.087Z,4.45
2019-04-04T01:24:56.993Z,4.51
2019-04-04T01:27:29.548Z,4.51
2019-04-04T01:30:01.864Z,4.51
2019-04-04T01:32:34.401Z,4.50
2019-04-04T01:35:11.038Z,4.52
2019-04-04T01:37:43.362Z,4.52
2019-04-04T01:40:16.323Z,4.43
2019-04-04T01:42:48.622Z,4.36
2019-04-04T01:45:24.402Z,4.36
2019-04-04T01:47:56.850Z,4.34
2019-04-04T01:50:29.304Z,4.49
2019-04-04T01:53:01.682Z,4.47
2019-04-04T01:55:35.063Z,4.47
2019-04-04T01:58:14.774Z,4.45
2019-04-04T02:00:51.045Z,4.53
2019-04-04T02:03:27.571Z,4.48
2019-04-04T02:06:04.497Z,4.43
2019-04-04T02:08:38.438Z,4.41
2019-04-04T02:11:12.361Z,4.43
2019-04-04T02:13:44.731Z,4.40
2019-04-04T02:16:18.621Z,4.40
2019-04-04T02:18:54.482Z,4.30
2019-04-04T02:21:28.845Z,4.30
2019-04-04T02:24:04.453Z,4.31
2019-04-04T02:26:37.099Z,4.32
2019-04-04T02:29:25.065Z,4.38
2019-04-04T02:32:05.058Z,4.30
2019-04-04T02:34:37.901Z,4.29
2019-04-04T02:37:10.892Z,4.29
2019-04-04T02:39:42.575Z,4.34
2019-04-04T02:42:15.066Z,4.37
2019-04-04T02:44:46.723Z,4.45
2019-04-04T02:47:19.283Z,4.51
2019-04-04T02:49:53.290Z,4.56
2019-04-04T02:52:25.846Z,4.63
2019-04-04T02:54:58.659Z,4.63
2019-04-04T02:57:31.305Z,4.82
2019-04-04T03:00:03.786Z,4.85
2019-04-04T03:02:37.100Z,4.91
2019-04-04T03:05:09.783Z,4.91
2019-04-04T03:07:42.293Z,5.05
2019-04-04T03:10:16.356Z,5.14
2019-04-04T03:12:49.286Z,5.14
2019-04-04T03:15:23.596Z,5.12
2019-04-04T03:17:56.283Z,5.12
2019-04-04T03:20:28.971Z,5.24
2019-04-04T03:23:01.502Z,5.24
2019-04-04T03:25:33.979Z,5.34
2019-04-04T03:28:06.400Z,5.26
2019-04-04T03:30:38.826Z,5.31
2019-04-04T03:33:11.554Z,5.41
2019-04-04T03:35:47.417Z,5.46
2019-04-04T03:38:20.070Z,5.44
2019-04-04T03:40:57.258Z,5.47
2019-04-04T03:43:27.657Z,5.46
2019-04-04T03:46:01.529Z,5.49
2019-04-04T03:48:36.068Z,5.46
2019-04-04T03:51:08.658Z,5.48
2019-04-04T03:53:42.714Z,5.54
2019-04-04T03:56:15.288Z,5.58
2019-04-04T03:58:47.710Z,5.62
2019-04-04T04:01:20.360Z,5.62
2019-04-04T04:03:55.459Z,5.63
2019-04-04T04:06:28.384Z,5.66
2019-04-04T04:09:00.700Z,5.84
2019-04-04T04:11:37.363Z,5.84
2019-04-04T04:14:09.373Z,5.80
2019-04-04T04:16:41.660Z,5.85
2019-04-04T04:19:14.337Z,5.85
2019-04-04T04:21:46.824Z,5.81
2019-04-04T04:24:19.298Z,5.87
2019-04-04T04:26:51.731Z,5.88
2019-04-04T04:29:24.302Z,5.88
2019-04-04T04:31:57.063Z,5.94
2019-04-04T04:34:33.025Z,5.83
2019-04-04T04:37:03.725Z,5.89
2019-04-04T04:39:40.787Z,5.93
2019-04-04T04:42:26.603Z,5.91
2019-04-04T04:45:00.388Z,5.92
2019-04-04T04:47:32.747Z,5.90
2019-04-04T04:50:09.525Z,5.91
2019-04-04T04:52:41.500Z,5.90
2019-04-04T04:55:14.297Z,5.81
2019-04-04T04:57:46.721Z,5.88
2019-04-04T05:00:19.441Z,5.88
2019-04-04T05:02:53.182Z,5.92
2019-04-04T05:05:26.432Z,5.90
2019-04-04T05:07:58.876Z,5.87
2019-04-04T05:10:31.490Z,5.89
2019-04-04T05:13:04.282Z,5.79
2019-04-04T05:15:37.283Z,5.83
2019-04-04T05:18:11.883Z,5.84
2019-04-04T05:20:44.295Z,5.84
2019-04-04T05:23:17.295Z,5.88
2019-04-04T05:25:53.947Z,5.77
2019-04-04T05:28:24.658Z,5.77
2019-04-04T05:30:57.290Z,5.83
2019-04-04T05:33:31.591Z,5.84
2019-04-04T05:36:05.311Z,5.88
2019-04-04T05:38:37.493Z,5.86
2019-04-04T05:41:10.039Z,5.89
2019-04-04T05:43:44.315Z,5.97
2019-04-04T05:46:19.013Z,5.99
2019-04-04T05:48:55.476Z,6.02
2019-04-04T05:51:28.298Z,6.02
2019-04-04T05:54:00.746Z,6.05
2019-04-04T05:56:33.409Z,6.05
2019-04-04T05:59:06.290Z,5.97
2019-04-04T06:01:38.687Z,5.75
2019-04-04T06:04:11.310Z,5.75
2019-04-04T06:06:44.377Z,5.93
2019-04-04T06:09:17.307Z,5.75
2019-04-04T06:11:53.172Z,5.87
2019-04-04T06:14:25.617Z,5.56
2019-04-04T06:18:02.313Z,5.80
2019-04-04T06:20:36.284Z,5.90
2019-04-04T06:23:08.643Z,6.05
2019-04-04T06:25:43.515Z,6.05
2019-04-04T06:28:18.594Z,5.98
2019-04-04T06:30:53.312Z,5.91
2019-04-04T06:33:25.676Z,5.92
2019-04-04T06:35:58.296Z,5.87
2019-04-04T06:38:30.858Z,5.68
2019-04-04T06:41:03.385Z,5.82
2019-04-04T06:43:35.752Z,5.92
2019-04-04T06:46:08.424Z,5.92
2019-04-04T06:48:40.796Z,5.94
2019-04-04T06:51:14.235Z,5.95
2019-04-04T06:53:48.246Z,5.87
2019-04-04T06:56:20.239Z,6.05
2019-04-04T06:58:54.273Z,6.05
2019-04-04T07:01:27.655Z,6.00
2019-04-04T07:04:02.021Z,6.08
2019-04-04T07:06:34.655Z,6.14
2019-04-04T07:09:09.697Z,6.10
2019-04-04T07:11:42.354Z,6.10
2019-04-04T07:14:16.434Z,6.13
2019-04-04T07:16:49.248Z,6.13
2019-04-04T07:19:21.753Z,5.92
2019-04-04T07:24:29.044Z,6.05
2019-04-04T07:27:02.069Z,5.94
2019-04-04T07:29:36.023Z,5.83
2019-04-04T07:32:09.576Z,5.95
2019-04-04T07:34:45.967Z,6.03
2019-04-04T07:37:21.802Z,6.06
2019-04-04T07:39:55.596Z,5.99
2019-04-04T07:42:30.778Z,5.98
2019-04-04T07:45:03.629Z,6.16
2019-04-04T07:47:36.303Z,6.15
2019-04-04T07:50:09.465Z,6.01
2019-04-04T07:52:41.851Z,5.83
2019-04-04T07:55:14.507Z,6.04
2019-04-04T07:57:50.855Z,6.02
2019-04-04T08:00:25.299Z,6.09
2019-04-04T08:03:02.047Z,6.24
2019-04-04T08:05:34.586Z,6.24
2019-04-04T08:08:08.374Z,6.41
2019-04-04T08:10:44.322Z,6.39
2019-04-04T08:13:16.807Z,6.38
2019-04-04T08:15:50.981Z,6.38
2019-04-04T08:18:26.548Z,6.76
2019-04-04T08:20:59.317Z,6.76
2019-04-04T08:23:31.701Z,6.54
2019-04-04T08:26:09.983Z,6.54
2019-04-04T08:28:40.332Z,6.71
2019-04-04T08:31:12.710Z,6.91
2019-04-04T08:33:45.388Z,6.91
2019-04-04T08:36:19.308Z,7.00
2019-04-04T08:38:56.015Z,7.12
2019-04-04T08:41:28.758Z,7.11
2019-04-04T08:44:02.549Z,7.04
2019-04-04T08:46:36.795Z,6.79
2019-04-04T08:49:09.659Z,6.52
2019-04-04T08:51:42.522Z,6.43
2019-04-04T08:54:19.056Z,6.50
2019-04-04T08:56:51.220Z,6.70
2019-04-04T08:59:23.993Z,6.65
2019-04-04T09:01:58.321Z,6.61
2019-04-04T09:04:31.074Z,7.11
2019-04-04T09:07:03.779Z,7.11
2019-04-04T09:09:36.497Z,7.40
2019-04-04T09:12:09.289Z,7.41
2019-04-04T09:14:41.984Z,7.43
2019-04-04T09:17:14.576Z,7.43
2019-04-04T09:19:50.104Z,7.60
2019-04-04T09:22:24.116Z,7.79
2019-04-04T09:24:57.305Z,7.69
2019-04-04T09:27:29.465Z,7.56
2019-04-04T09:30:01.854Z,7.86
2019-04-04T09:32:34.380Z,7.79
2019-04-04T09:35:09.375Z,7.80
2019-04-04T09:37:42.190Z,7.80
2019-04-04T09:40:15.292Z,7.76
2019-04-04T09:42:47.900Z,7.92
2019-04-04T09:45:21.082Z,7.92
2019-04-04T09:47:53.735Z,7.55
2019-04-04T09:50:26.742Z,7.66
2019-04-04T09:52:59.295Z,7.66
2019-04-04T09:55:31.983Z,7.66
2019-04-04T09:58:05.309Z,7.66
2019-04-04T10:00:38.218Z,7.28
2019-04-04T10:03:09.529Z,7.28
2019-04-04T10:05:43.958Z,7.30
2019-04-04T10:08:16.530Z,7.59
2019-04-04T10:10:49.298Z,7.71
2019-04-04T10:13:24.290Z,7.75
2019-04-04T10:15:57.068Z,7.75
2019-04-04T10:18:29.873Z,7.85
2019-04-04T10:21:11.680Z,7.78
2019-04-04T10:23:36.713Z,7.87
2019-04-04T10:26:09.311Z,7.79
2019-04-04T10:28:41.846Z,7.80
2019-04-04T10:31:14.320Z,7.80
2019-04-04T10:33:46.847Z,7.92
2019-04-04T10:36:19.459Z,7.92
2019-04-04T10:42:12.662Z,7.66
2019-04-04T10:44:45.333Z,7.62
2019-04-04T10:58:01.528Z,7.53
2019-04-04T11:04:00.683Z,7.53
2019-04-04T11:06:37.490Z,7.70
2019-04-04T11:09:10.968Z,7.84
2019-04-04T11:11:43.851Z,7.59
2019-04-04T11:14:16.341Z,7.59
2019-04-04T11:16:48.848Z,7.61
2019-04-04T11:19:31.067Z,7.39
2019-04-04T11:21:57.418Z,7.66
2019-04-04T11:24:32.755Z,7.51
2019-04-04T11:27:05.449Z,7.45
2019-04-04T11:29:37.731Z,7.51
2019-04-04T11:32:10.300Z,7.23
2019-04-04T11:34:53.191Z,7.36
2019-04-04T11:37:18.361Z,7.36
2019-04-04T11:39:54.910Z,7.03
2019-04-04T11:42:25.334Z,7.03
2019-04-04T11:44:58.825Z,7.27
2019-04-04T11:47:31.306Z,7.28
2019-04-04T11:50:03.975Z,7.13
2019-04-04T11:52:39.401Z,7.13
2019-04-04T11:55:12.288Z,7.19
2019-04-04T11:57:44.760Z,7.40
2019-04-04T12:00:33.162Z,7.62
2019-04-04T12:03:06.492Z,7.76
2019-04-04T12:05:39.107Z,7.67
2019-04-04T12:08:11.342Z,7.46
2019-04-04T12:10:43.701Z,7.19
2019-04-04T12:13:16.294Z,7.19
2019-04-04T12:15:51.669Z,7.00
2019-04-04T12:18:24.284Z,7.00
2019-04-04T12:20:56.696Z,7.26
2019-04-04T12:23:29.518Z,7.26
2019-04-04T12:26:02.322Z,7.17
2019-04-04T12:28:37.552Z,7.04
2019-04-04T12:31:09.387Z,7.04
2019-04-04T12:33:41.802Z,7.20
2019-04-04T12:36:24.451Z,7.20
2019-04-04T12:38:51.571Z,7.65
2019-04-04T12:41:24.332Z,8.81
2019-04-04T12:43:56.718Z,8.35
2019-04-04T12:46:29.312Z,8.35
2019-04-04T12:49:01.283Z,8.75
2019-04-04T12:51:49.550Z,8.18
2019-04-04T12:54:31.051Z,7.97
2019-04-04T12:57:04.826Z,7.56
2019-04-04T12:59:38.673Z,7.13
2019-04-04T13:02:11.296Z,7.13
2019-04-04T13:04:43.061Z,7.03
2019-04-04T13:07:16.301Z,7.03
2019-04-04T13:09:49.296Z,7.36
2019-04-04T13:12:21.933Z,7.58
2019-04-04T13:14:57.328Z,7.58
2019-04-04T13:17:29.796Z,7.75
2019-04-04T13:20:03.565Z,7.83
2019-04-04T13:23:04.339Z,7.68
2019-04-04T13:25:37.106Z,7.78
2019-04-04T13:28:09.696Z,7.78
2019-04-04T13:30:42.433Z,7.64
2019-04-04T13:33:14.861Z,7.73
2019-04-04T13:35:47.478Z,7.73
2019-04-04T13:38:19.876Z,7.61
2019-04-04T13:40:52.603Z,7.73
2019-04-04T13:43:26.400Z,7.74
2019-04-04T13:45:59.312Z,7.32
2019-04-04T13:48:33.499Z,7.03
2019-04-04T13:51:06.325Z,6.97
2019-04-04T13:53:41.255Z,7.07
2019-04-04T13:56:13.026Z,6.96
2019-04-04T13:58:47.494Z,6.96
2019-04-04T14:01:25.376Z,7.08
2019-04-04T14:04:03.287Z,6.62
2019-04-04T14:06:35.749Z,6.76
2019-04-04T14:09:13.043Z,6.76
2019-04-04T14:11:44.769Z,7.05
2019-04-04T14:14:17.297Z,6.84
2019-04-04T14:16:50.002Z,7.08
2019-04-04T14:19:22.901Z,7.08
2019-04-04T14:21:55.644Z,7.13
2019-04-04T14:24:29.047Z,7.16
2019-04-04T14:27:01.605Z,7.16
2019-04-04T14:29:34.388Z,7.22
2019-04-04T14:32:07.345Z,7.33
2019-04-04T14:34:39.839Z,7.63
2019-04-04T14:37:12.360Z,7.63
2019-04-04T14:39:45.044Z,7.96
2019-04-04T14:42:17.641Z,7.96
2019-04-04T14:44:51.347Z,8.04
2019-04-04T14:47:23.909Z,7.79
2019-04-04T14:49:56.061Z,7.79
2019-04-04T14:52:33.656Z,7.48
2019-04-04T14:55:13.582Z,7.97
2019-04-04T14:57:55.317Z,8.14
2019-04-04T15:00:27.105Z,7.65
2019-04-04T15:02:59.697Z,7.65
2019-04-04T15:08:48.103Z,7.58
2019-04-04T15:11:24.457Z,7.65
2019-04-04T15:13:56.958Z,7.59
2019-04-04T15:16:29.349Z,7.75
2019-04-04T15:19:01.509Z,8.01
2019-04-04T15:21:36.576Z,8.50
2019-04-04T15:27:41.454Z,8.62
2019-04-04T15:30:18.676Z,9.39
2019-04-04T15:32:55.297Z,9.25
2019-04-04T15:35:27.844Z,8.98
2019-04-04T15:38:03.014Z,8.98
2019-04-04T15:40:35.438Z,8.68
2019-04-04T15:43:09.631Z,8.83
2019-04-04T15:45:44.872Z,9.03
2019-04-04T15:48:17.325Z,8.94
2019-04-04T15:50:49.341Z,8.80
2019-04-04T15:53:21.710Z,8.59
2019-04-04T15:55:54.350Z,8.15
2019-04-04T15:58:26.823Z,8.33
2019-04-04T16:00:59.477Z,8.54
2019-04-04T16:03:32.294Z,8.78
2019-04-04T16:06:04.241Z,8.83
2019-04-04T16:08:39.263Z,9.26
2019-04-04T16:11:11.512Z,9.21
2019-04-04T16:13:44.013Z,9.03
2019-04-04T16:16:16.325Z,8.84
2019-04-04T16:18:48.810Z,9.12
2019-04-04T16:21:21.309Z,9.12
2019-04-04T16:23:53.592Z,9.22
